Lobo

Go HERE for most recent data if this page is not up to date.

Jump to table bottom
Date/Time Temp deg F RH % 24 Hr Snow (in) Snow Depth (in) H2O (in)
09/23 09:00 41.3 61 "NAN" 0.5 0.00
09/23 08:00 39.9 63 "NAN" 0.4 0.00
09/23 07:00 39.1 65 "NAN" 0.4 0.00
09/23 06:00 40.4 64 "NAN" 0.2 0.00
09/23 05:00 40.5 62 "NAN" 0.4 0.00
09/23 04:00 40.7 58 "NAN" 0.6 0.00
09/23 03:00 41.4 59 "NAN" 0.5 0.00
09/23 02:00 41.2 60 "NAN" 0.4 0.00
09/23 01:00 40.7 64 "NAN" 0.4 0.00
09/23 00:00 40.8 68 "NAN" 0.3 0.00
09/22 23:00 39.5 71 "NAN" 0.5 0.00
09/22 22:00 38.4 82 "NAN" 0.3 0.00
09/22 21:00 39.7 80 "NAN" 0.2 0.00
09/22 20:00 42.7 74 "NAN" 0.0 0.00
09/22 19:00 43.8 60 "NAN" -0.0 0.00
09/22 18:00 46.1 60 "NAN" -0.9 0.00
09/22 17:00 48.0 57 "NAN" 0.8 0.00
09/22 16:00 48.8 55 "NAN" -1.0 0.00
09/22 15:00 49.8 51 "NAN" -1.6 0.00
09/22 14:00 49.0 52 "NAN" -0.4 0.00
09/22 13:00 46.1 55 "NAN" 0.6 0.00
09/22 12:00 42.4 56 "NAN" 1.0 0.00
09/22 11:00 39.2 72 "NAN" 0.9 0.00
09/22 10:00 36.0 83 "NAN" 0.8 0.00
09/22 09:00 33.3 91 "NAN" 0.8 0.00
09/22 08:00 32.8 91 "NAN" 0.6 0.00
09/22 07:00 34.2 83 "NAN" 0.8 0.00
09/22 06:00 33.8 86 "NAN" 0.7 0.00
09/22 05:00 33.5 86 "NAN" 0.7 0.00
09/22 04:00 33.5 86 "NAN" 0.8 0.00
09/22 03:00 33.5 83 "NAN" 0.8 0.00
09/22 02:00 33.6 85 "NAN" 0.8 0.00
09/22 01:00 33.8 79 "NAN" 1.0 0.00
09/22 00:00 33.8 82 "NAN" 0.9 0.00
.